createdAt,value
2023-05-17T00:04:08.151Z,8.21
2023-05-17T00:09:12.273Z,8.35
2023-05-17T00:14:16.605Z,8.77
2023-05-17T00:19:20.260Z,9.01
2023-05-17T00:24:23.859Z,9.05
2023-05-17T00:29:27.890Z,8.67
2023-05-17T00:34:32.349Z,9.04
2023-05-17T00:39:36.307Z,9.35
2023-05-17T00:44:41.476Z,8.96
2023-05-17T00:49:45.905Z,9.13
2023-05-17T00:54:51.122Z,8.86
2023-05-17T00:59:55.989Z,9.08
2023-05-17T01:05:01.121Z,9.19
2023-05-17T01:10:05.476Z,9.31
2023-05-17T01:15:16.149Z,9.33
2023-05-17T01:20:39.565Z,9.28
2023-05-17T01:25:51.570Z,9.35
2023-05-17T01:30:58.232Z,9.57
2023-05-17T01:36:02.190Z,9.12
2023-05-17T01:41:42.877Z,9.39
2023-05-17T01:46:48.283Z,8.93
2023-05-17T01:52:04.003Z,9.33
2023-05-17T01:57:08.798Z,8.83
2023-05-17T02:02:12.852Z,9.02
2023-05-17T02:07:16.446Z,8.83
2023-05-17T02:12:19.757Z,9.21
2023-05-17T02:17:23.407Z,9.16
2023-05-17T02:22:26.435Z,9.33
2023-05-17T02:27:29.924Z,9.25
2023-05-17T02:32:33.980Z,9.08
2023-05-17T02:37:37.220Z,9.13
2023-05-17T02:42:42.085Z,9.25
2023-05-17T02:47:46.394Z,9.43
2023-05-17T02:52:49.548Z,9.16
2023-05-17T02:57:54.011Z,9.09
2023-05-17T03:02:59.366Z,9.48
2023-05-17T03:08:02.536Z,9.63
2023-05-17T03:13:06.312Z,9.43
2023-05-17T03:18:13.860Z,9.34
2023-05-17T03:23:19.045Z,9.23
2023-05-17T03:28:32.456Z,9.28
2023-05-17T03:33:36.870Z,9.38
2023-05-17T03:38:41.748Z,9.14
2023-05-17T03:43:45.065Z,8.87
2023-05-17T03:48:51.492Z,9.16
2023-05-17T03:54:01.601Z,9.48
2023-05-17T03:59:06.866Z,9.23
2023-05-17T04:04:10.608Z,9.52
2023-05-17T04:09:15.780Z,9.35
2023-05-17T04:14:20.136Z,9.63
2023-05-17T04:19:24.024Z,9.58
2023-05-17T04:24:28.141Z,9.88
2023-05-17T04:29:32.239Z,9.78
2023-05-17T04:34:36.821Z,10.22
2023-05-17T04:39:42.433Z,10.50
2023-05-17T04:44:47.153Z,10.58
2023-05-17T04:49:51.801Z,10.70
2023-05-17T04:54:54.929Z,10.85
2023-05-17T05:00:00.145Z,10.93
2023-05-17T05:05:05.137Z,11.00
2023-05-17T05:10:09.526Z,10.77
2023-05-17T05:15:14.502Z,11.06
2023-05-17T05:20:25.868Z,11.13
2023-05-17T05:25:33.549Z,11.21
2023-05-17T05:30:37.227Z,11.46
2023-05-17T05:35:42.102Z,11.70
2023-05-17T05:40:48.977Z,11.95
2023-05-17T05:45:52.727Z,11.72
2023-05-17T05:50:58.031Z,11.93
2023-05-17T05:56:01.868Z,11.81
2023-05-17T06:01:06.415Z,11.84
2023-05-17T06:06:10.734Z,12.37
2023-05-17T06:11:18.881Z,12.63
2023-05-17T06:16:22.924Z,13.45
2023-05-17T06:21:26.376Z,16.47
2023-05-17T06:26:30.729Z,18.16
2023-05-17T06:31:34.450Z,18.39
2023-05-17T06:36:38.698Z,19.94
2023-05-17T06:41:42.072Z,19.72
2023-05-17T06:46:45.190Z,20.42
2023-05-17T06:51:50.390Z,20.90
2023-05-17T06:56:54.547Z,20.78
2023-05-17T07:01:57.915Z,20.75
2023-05-17T07:07:03.796Z,21.88
2023-05-17T07:12:07.845Z,19.93
2023-05-17T07:17:12.497Z,19.09
2023-05-17T07:22:16.536Z,19.44
2023-05-17T07:27:19.600Z,18.99
2023-05-17T07:32:24.679Z,18.84
2023-05-17T07:37:28.183Z,19.15
2023-05-17T07:42:32.129Z,19.17
2023-05-17T07:47:36.454Z,19.53
2023-05-17T07:52:39.666Z,19.18
2023-05-17T07:57:44.439Z,19.34
2023-05-17T08:02:49.681Z,19.00
2023-05-17T08:07:53.904Z,18.67
2023-05-17T08:12:57.059Z,18.94
2023-05-17T08:18:02.833Z,18.88
2023-05-17T08:23:09.814Z,18.97
2023-05-17T08:28:13.355Z,19.24
2023-05-17T08:33:17.561Z,18.56
2023-05-17T08:38:21.085Z,18.63
2023-05-17T08:43:27.764Z,18.93
2023-05-17T08:48:31.800Z,19.02
2023-05-17T08:53:35.929Z,19.36
2023-05-17T08:58:55.679Z,19.19
2023-05-17T09:04:00.993Z,19.37
2023-05-17T09:09:07.687Z,19.19
2023-05-17T09:14:11.268Z,19.63
2023-05-17T09:19:19.172Z,19.72
2023-05-17T09:24:30.765Z,20.87
2023-05-17T09:29:35.107Z,20.54
2023-05-17T09:34:41.495Z,20.10
2023-05-17T09:39:46.500Z,20.34
2023-05-17T09:44:55.265Z,19.80
2023-05-17T09:50:03.532Z,20.28
2023-05-17T09:55:07.273Z,20.73
2023-05-17T10:00:12.483Z,20.46
2023-05-17T10:05:19.844Z,20.20
2023-05-17T10:10:24.179Z,20.25
2023-05-17T10:15:29.338Z,20.61
2023-05-17T10:20:33.756Z,20.03
2023-05-17T10:25:38.391Z,20.95
2023-05-17T10:30:43.162Z,21.38
2023-05-17T10:35:47.875Z,21.94
2023-05-17T10:40:53.181Z,21.38
2023-05-17T10:45:56.410Z,21.23
2023-05-17T10:51:07.975Z,22.09
2023-05-17T10:56:11.849Z,21.74
2023-05-17T11:01:54.784Z,21.90
2023-05-17T11:07:17.663Z,22.58
2023-05-17T11:12:40.723Z,21.31
2023-05-17T11:17:44.558Z,22.00
2023-05-17T11:22:59.228Z,21.45
2023-05-17T11:28:09.070Z,21.82
2023-05-17T11:33:29.062Z,21.93
2023-05-17T11:38:38.023Z,21.99
2023-05-17T11:43:47.636Z,21.64
2023-05-17T11:48:55.140Z,22.18
2023-05-17T11:54:04.448Z,22.33
2023-05-17T11:59:08.736Z,20.95
2023-05-17T12:04:12.365Z,21.34
2023-05-17T12:09:18.756Z,19.90
2023-05-17T12:14:23.092Z,20.01
2023-05-17T12:19:30.181Z,20.69
2023-05-17T12:24:41.608Z,21.51
2023-05-17T12:29:45.386Z,20.43
2023-05-17T12:34:49.970Z,20.56
2023-05-17T12:39:53.526Z,20.35
2023-05-17T12:44:57.688Z,19.85
2023-05-17T12:50:03.754Z,20.51
2023-05-17T12:55:08.227Z,20.72
2023-05-17T13:00:12.872Z,20.64
2023-05-17T13:05:21.984Z,20.26
2023-05-17T13:10:27.908Z,20.95
2023-05-17T13:15:33.459Z,22.67
2023-05-17T13:20:38.546Z,23.31
2023-05-17T13:25:41.632Z,23.42
2023-05-17T13:30:52.262Z,22.92
2023-05-17T13:35:56.142Z,22.26
2023-05-17T13:40:59.927Z,20.95
2023-05-17T13:46:04.445Z,21.91
2023-05-17T13:51:09.281Z,21.35
2023-05-17T13:56:12.749Z,21.77
2023-05-17T14:01:18.871Z,21.01
2023-05-17T14:06:22.906Z,20.29
2023-05-17T14:11:26.611Z,19.99
2023-05-17T14:16:30.482Z,20.25
2023-05-17T14:21:33.869Z,20.23
2023-05-17T14:26:37.890Z,19.45
2023-05-17T14:31:41.904Z,19.04
2023-05-17T14:36:45.859Z,20.03
2023-05-17T14:41:49.062Z,19.68
2023-05-17T14:46:53.593Z,19.48
2023-05-17T14:51:57.216Z,19.44
2023-05-17T14:57:00.826Z,20.15
2023-05-17T15:02:05.940Z,19.76
2023-05-17T15:07:08.989Z,19.90
2023-05-17T15:12:14.229Z,20.44
2023-05-17T15:17:17.744Z,19.86
2023-05-17T15:22:21.055Z,19.25
2023-05-17T15:27:24.914Z,18.83
2023-05-17T15:32:28.609Z,18.50
2023-05-17T15:37:32.597Z,18.57
2023-05-17T15:42:36.668Z,17.41
2023-05-17T15:47:43.598Z,17.32
2023-05-17T15:52:49.065Z,17.27
2023-05-17T15:57:52.914Z,17.33
2023-05-17T16:02:56.848Z,16.93
2023-05-17T16:08:25.709Z,16.91
2023-05-17T16:13:29.308Z,16.38
2023-05-17T16:18:33.619Z,15.80
2023-05-17T16:23:38.032Z,15.70
2023-05-17T16:28:41.898Z,16.20
2023-05-17T16:33:45.928Z,15.59
2023-05-17T16:38:50.624Z,15.55
2023-05-17T16:43:54.006Z,15.69
2023-05-17T16:48:57.900Z,15.64
2023-05-17T16:54:01.650Z,15.46
2023-05-17T16:59:06.578Z,15.24
2023-05-17T17:04:09.978Z,14.97
2023-05-17T17:09:13.807Z,14.68
2023-05-17T17:14:18.414Z,14.41
2023-05-17T17:19:22.269Z,14.33
2023-05-17T17:24:25.406Z,14.10
2023-05-17T17:29:29.447Z,13.88
2023-05-17T17:34:34.091Z,13.99
2023-05-17T17:39:38.066Z,13.56
2023-05-17T17:44:41.760Z,13.45
2023-05-17T17:49:46.145Z,13.40
2023-05-17T17:54:50.141Z,13.34
2023-05-17T17:59:54.004Z,13.01
2023-05-17T18:04:57.791Z,13.33
2023-05-17T18:10:02.174Z,13.40
2023-05-17T18:15:06.764Z,13.38
2023-05-17T18:20:10.529Z,13.07
2023-05-17T18:25:14.689Z,13.15
2023-05-17T18:30:19.071Z,13.10
2023-05-17T18:35:22.888Z,13.13
2023-05-17T18:40:27.299Z,12.60
2023-05-17T18:45:32.096Z,12.22
2023-05-17T18:50:35.878Z,12.37
2023-05-17T18:55:39.398Z,11.87
2023-05-17T19:00:43.321Z,11.95
2023-05-17T19:05:46.807Z,11.85
2023-05-17T19:10:50.590Z,11.74
2023-05-17T19:15:53.698Z,11.10
2023-05-17T19:20:58.224Z,11.27
2023-05-17T19:26:02.757Z,10.88
2023-05-17T19:31:08.651Z,10.95
2023-05-17T19:36:13.306Z,11.13
2023-05-17T19:41:19.061Z,10.75
2023-05-17T19:46:24.390Z,10.41
2023-05-17T19:51:28.780Z,10.79
2023-05-17T19:56:34.580Z,10.76
2023-05-17T20:01:40.796Z,10.68
2023-05-17T20:06:46.570Z,10.68
2023-05-17T20:11:53.737Z,10.37
2023-05-17T20:17:00.398Z,10.45
2023-05-17T20:22:08.038Z,10.44
2023-05-17T20:27:17.004Z,10.21
2023-05-17T20:32:24.151Z,10.48
2023-05-17T20:37:30.150Z,10.38
2023-05-17T20:42:38.691Z,9.92
2023-05-17T20:47:44.190Z,9.68
2023-05-17T20:52:48.547Z,9.77
2023-05-17T20:57:52.641Z,9.68
2023-05-17T21:02:56.356Z,9.00
2023-05-17T21:08:00.154Z,9.06
2023-05-17T21:13:04.866Z,8.99
2023-05-17T21:18:11.293Z,9.06
2023-05-17T21:23:15.103Z,8.55
2023-05-17T21:28:19.381Z,8.58
2023-05-17T21:33:22.520Z,8.25
2023-05-17T21:38:25.639Z,8.33
2023-05-17T21:43:29.755Z,8.72
2023-05-17T21:48:33.739Z,8.35
2023-05-17T21:53:36.868Z,8.85
2023-05-17T21:58:41.123Z,8.39
2023-05-17T22:03:44.778Z,8.31
2023-05-17T22:08:48.824Z,8.50
2023-05-17T22:13:52.908Z,8.07
2023-05-17T22:18:56.534Z,7.83
2023-05-17T22:24:00.620Z,7.94
2023-05-17T22:29:03.992Z,8.01
2023-05-17T22:34:08.039Z,8.01
2023-05-17T22:39:11.650Z,8.11
2023-05-17T22:44:14.906Z,7.90
2023-05-17T22:49:20.468Z,8.24
2023-05-17T22:54:26.924Z,8.16
2023-05-17T22:59:31.296Z,8.24
2023-05-17T23:04:38.018Z,8.03
2023-05-17T23:09:42.060Z,7.99
2023-05-17T23:14:45.595Z,7.91
2023-05-17T23:19:48.906Z,7.94
2023-05-17T23:24:54.272Z,7.44
2023-05-17T23:29:58.325Z,7.77
2023-05-17T23:35:03.998Z,7.28
2023-05-17T23:40:09.607Z,7.43
2023-05-17T23:45:12.885Z,7.31
2023-05-17T23:50:17.111Z,7.06
2023-05-17T23:55:22.494Z,6.86
